TIST/STT METAR and TAF weather

Enter ICAO airport designator
Station Type Date Time Source
TIST METAR 2019/08/24 22:53 UTC NOAA

TIST 242253Z 10011KT 10SM CLR 29/24 A3001 RMK AO2 SLP161 T02940244 $


Station Type Date Time Source
TIST Decoded METAR 2019/08/24 22:53 UTC NOAA

Station name not available
Aug 24, 2019 - 06:53 PM EDT / 2019.08.24 2253 UTC
Wind: from the E (100 degrees) at 13 MPH (11 KT):0
Visibility: 10 mile(s):0
Sky conditions: clear
Temperature: 84.9 F (29.4 C)
Dew Point: 75.9 F (24.4 C)
Relative Humidity: 74%
Pressure (altimeter): 30.01 in. Hg (1016 hPa)
ob: TIST 242253Z 10011KT 10SM CLR 29/24 A3001 RMK AO2 SLP161 T02940244
cycle: 23

Station Type Date Time Source
TIST TAF 2019/08/24 18:45 UTC NOAA

TAF TIST 241739Z 2418/2518 13015KT P6SM VCSH FEW025 SCT040
FM242330 10009KT P6SM FEW025 SCT050
FM250300 09009KT P6SM VCSH SCT025 SCT040
FM251400 12014KT P6SM SCT030

Example: see airport list